Time;durP1;ratioP1;P1;durP2;ratioP2;P2;SDS_P1;SDS_P2;PMS_P1;PMS_P2;Temp;Humidity;BMP_temperature;BMP_pressure;BME280_temperature;BME280_humidity;BME280_pressure;Samples;Min_cycle;Max_cycle;Signal;HPM_P1;HPM_P2
2022/05/26 00:01:51;;;;;;;24.80;12.93;;;12.90;99.90;;;;;;4989611;28;20075;-46
2022/05/26 00:04:17;;;;;;;20.42;10.30;;;12.20;99.90;;;;;;4989980;28;20054;-47
2022/05/26 00:06:43;;;;;;;27.38;12.05;;;11.90;99.90;;;;;;4990020;28;20038;-46
2022/05/26 00:09:09;;;;;;;23.27;10.30;;;12.10;99.90;;;;;;4989545;28;20038;-46
2022/05/26 00:11:37;;;;;;;27.70;11.27;;;12.90;99.90;;;;;;4990183;28;20490;-46
2022/05/26 00:14:08;;;;;;;16.48;8.77;;;12.10;99.90;;;;;;4990314;28;20113;-46
2022/05/26 00:16:43;;;;;;;23.23;10.07;;;12.20;99.90;;;;;;4990127;28;20401;-46
2022/05/26 00:19:10;;;;;;;17.95;9.25;;;12.10;99.90;;;;;;4989444;28;20309;-45
2022/05/26 00:21:36;;;;;;;19.65;8.68;;;12.20;99.90;;;;;;4989854;28;20042;-47
2022/05/26 00:24:02;;;;;;;24.48;9.20;;;12.50;99.90;;;;;;4989564;28;20046;-46
2022/05/26 00:26:28;;;;;;;16.13;8.75;;;12.20;99.90;;;;;;4989695;28;20053;-47
2022/05/26 00:28:54;;;;;;;21.92;8.65;;;11.80;99.90;;;;;;4989513;28;20456;-47
2022/05/26 00:31:21;;;;;;;14.48;6.45;;;12.20;99.90;;;;;;4989668;28;20069;-46
2022/05/26 00:33:47;;;;;;;15.48;7.00;;;12.40;99.90;;;;;;4989713;28;20125;-47
2022/05/26 00:36:15;;;;;;;15.82;6.93;;;12.20;99.90;;;;;;4989529;28;20053;-46
2022/05/26 00:38:42;;;;;;;12.05;6.50;;;12.80;99.90;;;;;;4989274;28;20465;-47
2022/05/26 00:41:12;;;;;;;16.48;6.97;;;12.30;99.90;;;;;;4989696;28;20127;-46
2022/05/26 00:43:44;;;;;;;11.90;6.38;;;12.30;99.90;;;;;;4988129;28;20052;-46
2022/05/26 00:46:20;;;;;;;18.08;7.97;;;12.30;99.90;;;;;;4989494;28;20049;-46
2022/05/26 00:48:52;;;;;;;19.20;8.10;;;12.40;99.90;;;;;;4989346;28;20050;-47
2022/05/26 00:51:23;;;;;;;22.10;8.88;;;12.30;99.90;;;;;;4989516;28;20132;-47
2022/05/26 00:53:54;;;;;;;24.73;9.13;;;12.60;99.90;;;;;;4989385;28;20097;-46
2022/05/26 00:56:34;;;;;;;28.83;9.60;;;12.40;99.90;;;;;;4989569;28;20145;-46
2022/05/26 00:59:06;;;;;;;18.25;9.30;;;12.40;99.90;;;;;;4989332;28;20467;-46
2022/05/26 01:01:32;;;;;;;22.75;10.75;;;12.30;99.90;;;;;;4988350;28;20082;-45
2022/05/26 01:04:06;;;;;;;24.33;10.23;;;12.40;99.90;;;;;;4989359;28;20478;-46
2022/05/26 01:06:42;;;;;;;41.28;13.65;;;12.60;99.90;;;;;;4989701;28;20047;-47
2022/05/26 01:09:07;;;;;;;33.95;13.35;;;12.40;99.90;;;;;;4989376;28;20047;-46
2022/05/26 01:11:37;;;;;;;42.40;15.50;;;12.30;99.90;;;;;;4989058;28;20039;-46
2022/05/26 01:14:12;;;;;;;38.30;13.02;;;12.30;99.90;;;;;;4989362;28;20061;-46
2022/05/26 01:16:56;;;;;;;39.67;14.82;;;13.10;99.90;;;;;;4989317;28;20046;-46
2022/05/26 01:19:51;;;;;;;39.67;15.68;;;12.40;99.90;;;;;;4989317;28;20054;-47
2022/05/26 01:23:02;;;;;;;50.22;18.48;;;12.40;99.90;;;;;;4993134;28;20049;-47
2022/05/26 01:25:34;;;;;;;57.78;19.85;;;12.50;99.90;;;;;;4992676;28;20038;-46
2022/05/26 01:28:11;;;;;;;49.80;18.83;;;12.40;99.90;;;;;;4992981;28;20038;-47
2022/05/26 01:30:47;;;;;;;64.00;19.75;;;12.40;99.90;;;;;;4992965;28;20133;-46
2022/05/26 01:33:26;;;;;;;60.35;20.55;;;12.50;99.90;;;;;;4992789;28;20038;-47
2022/05/26 01:36:06;;;;;;;55.85;21.17;;;12.50;99.90;;;;;;4992811;28;20038;-46
2022/05/26 01:38:58;;;;;;;59.47;23.27;;;12.50;99.90;;;;;;4992104;28;20074;-46
2022/05/26 01:41:46;;;;;;;59.70;21.17;;;12.70;99.90;;;;;;4992665;28;20050;-46
2022/05/26 01:44:34;;;;;;;58.05;21.52;;;12.50;99.90;;;;;;4992316;28;20046;-47
2022/05/26 01:47:13;;;;;;;66.82;21.42;;;12.50;99.90;;;;;;4991980;28;20559;-45
2022/05/26 01:49:51;;;;;;;71.22;23.50;;;12.50;99.90;;;;;;4992018;28;20502;-47
2022/05/26 01:52:27;;;;;;;75.93;23.05;;;12.40;99.90;;;;;;4992230;28;20050;-46
2022/05/26 01:55:13;;;;;;;78.15;21.20;;;12.20;99.90;;;;;;4991879;28;20050;-46
2022/05/26 01:58:03;;;;;;;70.60;22.05;;;12.70;99.90;;;;;;4992076;28;20148;-46
2022/05/26 02:00:30;;;;;;;82.28;23.65;;;12.30;99.90;;;;;;4991999;28;20086;-47
2022/05/26 02:03:10;;;;;;;77.47;22.15;;;12.20;99.90;;;;;;4992560;28;20388;-46
2022/05/26 02:05:53;;;;;;;66.82;24.27;;;12.20;99.90;;;;;;4991781;28;20049;-45
2022/05/26 02:08:38;;;;;;;69.10;21.92;;;12.10;99.90;;;;;;4991977;28;20049;-46
2022/05/26 02:11:14;;;;;;;61.53;20.27;;;12.00;99.90;;;;;;4991569;28;20486;-46
2022/05/26 02:13:51;;;;;;;76.20;22.98;;;12.10;99.90;;;;;;4992045;28;20039;-46
2022/05/26 02:16:40;;;;;;;65.28;20.90;;;12.40;99.90;;;;;;4991742;28;20054;-46
2022/05/26 02:19:28;;;;;;;78.35;21.63;;;12.10;99.90;;;;;;4988322;28;20054;-47
2022/05/26 02:22:19;;;;;;;66.13;21.77;;;12.10;99.90;;;;;;4991721;28;20486;-47
2022/05/26 02:24:53;;;;;;;70.68;21.60;;;12.20;99.90;;;;;;4991775;28;20046;-46
2022/05/26 02:27:19;;;;;;;81.97;23.70;;;12.20;99.90;;;;;;4991677;28;20050;-47
2022/05/26 02:29:53;;;;;;;71.05;20.77;;;12.20;99.90;;;;;;4991282;28;20046;-46
2022/05/26 02:32:35;;;;;;;64.32;19.52;;;12.40;99.90;;;;;;4991357;28;20045;-45
2022/05/26 02:35:06;;;;;;;67.37;21.63;;;12.30;99.90;;;;;;4991413;28;20406;-45
2022/05/26 02:37:33;;;;;;;85.75;22.77;;;12.30;99.90;;;;;;4991035;28;20484;-45
2022/05/26 02:39:59;;;;;;;65.18;18.52;;;12.30;99.90;;;;;;4991061;28;20184;-47
2022/05/26 02:42:26;;;;;;;68.00;20.00;;;12.30;99.90;;;;;;4989688;28;20133;-46
2022/05/26 02:44:52;;;;;;;73.50;20.65;;;12.40;99.90;;;;;;4991288;28;20498;-46
2022/05/26 02:47:50;;;;;;;63.15;19.63;;;12.40;99.90;;;;;;4990899;28;20046;-46
2022/05/26 02:50:46;;;;;;;68.07;21.00;;;12.50;99.90;;;;;;4990971;28;20046;-47
2022/05/26 02:53:31;;;;;;;64.57;19.35;;;12.50;99.90;;;;;;4989550;28;20061;-46
2022/05/26 02:55:57;;;;;;;67.88;19.77;;;12.50;99.90;;;;;;4991212;28;20051;-46
2022/05/26 02:58:37;;;;;;;57.00;18.48;;;12.50;99.90;;;;;;4991256;28;20044;-47
2022/05/26 03:01:11;;;;;;;65.47;19.80;;;12.50;99.90;;;;;;4990906;28;20073;-46
2022/05/26 03:03:42;;;;;;;64.03;18.45;;;12.50;99.90;;;;;;4991111;28;20061;-46
2022/05/26 03:06:38;;;;;;;65.60;16.87;;;12.90;99.90;;;;;;4990749;28;20050;-46
2022/05/26 03:09:05;;;;;;;69.72;19.63;;;12.50;99.90;;;;;;4987302;28;20317;-49
2022/05/26 03:11:49;;;;;;;74.80;19.80;;;12.50;99.90;;;;;;4990763;28;20057;-45
2022/05/26 03:14:16;;;;;;;59.72;17.80;;;12.50;99.90;;;;;;4990791;28;20096;-45
2022/05/26 03:16:42;;;;;;;71.90;18.33;;;12.50;99.90;;;;;;4990725;28;20038;-46
2022/05/26 03:19:08;;;;;;;60.45;16.73;;;12.60;99.90;;;;;;4990297;28;20585;-45
2022/05/26 03:21:34;;;;;;;75.80;17.48;;;12.50;99.90;;;;;;4990776;28;20394;-46
2022/05/26 03:24:00;;;;;;;58.80;17.15;;;12.40;99.90;;;;;;4990804;28;20402;-46
2022/05/26 03:26:26;;;;;;;69.85;17.55;;;12.20;99.90;;;;;;4990300;28;20061;-46
2022/05/26 03:28:52;;;;;;;62.00;17.38;;;12.40;99.90;;;;;;4990973;28;20042;-46
2022/05/26 03:31:18;;;;;;;68.53;16.67;;;12.40;99.90;;;;;;4988992;28;20430;-46
2022/05/26 03:41:57;;;;;;;53.95;15.07;;;12.40;99.90;;;;;;4990474;28;20057;-45
2022/05/26 03:44:24;;;;;;;60.17;13.55;;;12.40;99.90;;;;;;4989652;28;20046;-48
2022/05/26 03:46:50;;;;;;;66.15;15.85;;;12.40;99.90;;;;;;4990253;28;20037;-45
2022/05/26 03:49:16;;;;;;;62.53;15.10;;;12.30;99.90;;;;;;4990175;28;20086;-47
2022/05/26 03:51:42;;;;;;;67.03;14.10;;;12.60;99.90;;;;;;4990529;28;20056;-45
2022/05/26 03:54:08;;;;;;;56.35;14.77;;;12.10;99.90;;;;;;4990485;28;20058;-45
2022/05/26 03:56:33;;;;;;;45.00;12.85;;;12.30;99.90;;;;;;4990280;28;20833;-46
2022/05/26 03:59:00;;;;;;;48.83;13.48;;;13.50;99.90;;;;;;4990215;28;20453;-45
2022/05/26 04:01:27;;;;;;;60.67;12.77;;;12.70;99.90;;;;;;4989550;28;20409;-46
2022/05/26 04:03:55;;;;;;;56.83;13.25;;;12.30;99.90;;;;;;4990088;28;20042;-46
2022/05/26 04:06:21;;;;;;;53.47;11.52;;;12.30;99.90;;;;;;4989715;28;20402;-46
2022/05/26 04:08:47;;;;;;;58.30;11.55;;;12.30;99.90;;;;;;4990000;28;20050;-46
2022/05/26 04:11:13;;;;;;;52.58;12.88;;;12.30;99.90;;;;;;4989489;28;20449;-48
2022/05/26 04:13:39;;;;;;;46.25;10.48;;;12.20;99.90;;;;;;4988927;28;20153;-46
2022/05/26 04:16:05;;;;;;;45.42;10.73;;;12.20;99.90;;;;;;4989542;28;20518;-48
2022/05/26 04:18:31;;;;;;;40.40;11.07;;;12.20;99.90;;;;;;4989432;28;20243;-47
2022/05/26 04:21:05;;;;;;;48.80;12.07;;;12.30;99.90;;;;;;4989876;28;20046;-46
2022/05/26 04:23:30;;;;;;;50.42;11.75;;;12.30;99.90;;;;;;4989852;28;20092;-46
2022/05/26 04:25:56;;;;;;;52.00;11.65;;;12.40;99.90;;;;;;4988567;28;20529;-46
2022/05/26 04:28:22;;;;;;;36.47;9.10;;;12.60;99.90;;;;;;4989538;28;20085;-46
2022/05/26 04:30:47;;;;;;;37.00;9.82;;;12.60;99.90;;;;;;4989426;28;20518;-46
2022/05/26 04:33:13;;;;;;;45.38;8.25;;;12.70;99.90;;;;;;4989559;28;20046;-46
2022/05/26 04:35:39;;;;;;;48.97;10.45;;;12.90;99.90;;;;;;4989936;28;20489;-46
2022/05/26 04:38:04;;;;;;;35.53;8.02;;;12.70;99.90;;;;;;4989042;28;20042;-46
2022/05/26 04:40:30;;;;;;;43.55;8.63;;;12.80;99.90;;;;;;4988163;28;20465;-45
2022/05/26 04:42:56;;;;;;;37.45;7.45;;;12.60;99.90;;;;;;4989480;28;20494;-45
2022/05/26 04:45:21;;;;;;;30.08;7.43;;;12.60;99.90;;;;;;4989483;28;20049;-45
2022/05/26 04:47:47;;;;;;;41.25;8.98;;;12.50;99.90;;;;;;4989593;28;20097;-46
2022/05/26 04:50:14;;;;;;;41.97;8.80;;;12.40;99.90;;;;;;4989524;28;20397;-48
2022/05/26 04:52:40;;;;;;;34.97;7.03;;;12.40;99.90;;;;;;4989572;28;20053;-47
2022/05/26 04:55:07;;;;;;;39.17;8.18;;;12.60;99.90;;;;;;4989709;28;20055;-45
2022/05/26 04:57:33;;;;;;;44.20;8.05;;;12.60;99.90;;;;;;4993105;28;20038;-46
2022/05/26 04:59:58;;;;;;;33.88;8.10;;;12.80;99.90;;;;;;4993143;28;20052;-46
2022/05/26 05:02:24;;;;;;;43.75;8.02;;;12.70;99.90;;;;;;4992977;28;20571;-45
2022/05/26 05:04:51;;;;;;;33.33;7.82;;;12.80;99.90;;;;;;4993192;28;20121;-45
2022/05/26 05:07:18;;;;;;;33.45;7.28;;;12.80;99.90;;;;;;4993252;28;20274;-46
2022/05/26 05:09:45;;;;;;;27.45;6.65;;;13.20;99.90;;;;;;4993209;28;20053;-46
2022/05/26 05:12:13;;;;;;;25.95;5.90;;;13.70;99.90;;;;;;4993452;28;20073;-46
2022/05/26 05:14:44;;;;;;;27.48;6.07;;;13.60;99.90;;;;;;4993104;28;20062;-45
2022/05/26 05:17:11;;;;;;;21.13;5.63;;;13.40;99.90;;;;;;4993109;28;20046;-45
2022/05/26 05:19:37;;;;;;;26.27;6.82;;;13.70;99.90;;;;;;4992906;28;20525;-45
2022/05/26 05:22:09;;;;;;;25.65;5.70;;;14.30;99.90;;;;;;4992984;28;20050;-46
2022/05/26 05:24:42;;;;;;;20.15;4.22;;;14.40;99.90;;;;;;4992727;28;20073;-46
2022/05/26 05:27:20;;;;;;;22.05;3.97;;;14.20;99.90;;;;;;4992612;28;20517;-46
2022/05/26 05:29:48;;;;;;;11.48;3.72;;;14.50;99.90;;;;;;4992706;28;20893;-45
2022/05/26 05:32:28;;;;;;;12.55;3.03;;;15.30;99.90;;;;;;4992774;28;20065;-45
2022/05/26 05:35:08;;;;;;;20.98;3.95;;;16.50;99.90;;;;;;4992893;28;20064;-46
2022/05/26 05:37:34;;;;;;;10.63;2.90;;;16.10;99.90;;;;;;4991924;28;20058;-46
2022/05/26 05:40:01;;;;;;;16.83;2.25;;;16.10;99.90;;;;;;4992482;28;20613;-46
2022/05/26 05:42:28;;;;;;;15.90;3.00;;;15.80;99.90;;;;;;4992571;28;20493;-46
2022/05/26 05:44:54;;;;;;;16.13;2.67;;;15.50;99.90;;;;;;4992633;28;20050;-45
2022/05/26 05:47:20;;;;;;;13.73;2.05;;;15.30;99.90;;;;;;4992333;28;20042;-46
2022/05/26 05:49:47;;;;;;;8.90;1.20;;;15.20;99.90;;;;;;4992343;28;20089;-45
2022/05/26 05:52:20;;;;;;;12.20;2.10;;;15.20;99.90;;;;;;4992479;28;20050;-46
2022/05/26 05:54:45;;;;;;;11.40;2.50;;;15.90;99.90;;;;;;4992379;28;20050;-45
2022/05/26 05:57:11;;;;;;;9.80;1.10;;;17.00;99.90;;;;;;4992321;28;20050;-45
2022/05/26 05:59:37;;;;;;;12.55;1.67;;;17.80;99.90;;;;;;4992214;28;20085;-45
2022/05/26 06:02:03;;;;;;;6.82;0.77;;;18.80;99.90;;;;;;4992457;28;20052;-45
2022/05/26 06:04:29;;;;;;;7.82;1.55;;;19.00;99.90;;;;;;4992064;28;20050;-45
2022/05/26 06:06:55;;;;;;;9.88;1.27;;;19.00;99.90;;;;;;4991552;28;20096;-45
2022/05/26 06:09:21;;;;;;;7.15;0.70;;;18.60;99.90;;;;;;4991547;28;20488;-45
2022/05/26 06:11:48;;;;;;;9.05;0.88;;;18.30;99.90;;;;;;4991951;28;20073;-45
2022/05/26 06:14:14;;;;;;;6.85;0.88;;;17.80;99.90;;;;;;4992116;28;20050;-45
2022/05/26 06:16:40;;;;;;;6.18;0.70;;;17.50;99.90;;;;;;4991593;28;20470;-48
2022/05/26 06:19:06;;;;;;;7.85;0.70;;;17.50;99.90;;;;;;4992020;28;20046;-46
2022/05/26 06:21:35;;;;;;;6.82;0.68;;;17.20;99.90;;;;;;4991438;28;20053;-47
2022/05/26 06:24:01;;;;;;;8.55;0.95;;;16.90;99.90;;;;;;4989704;28;20061;-46
2022/05/26 06:26:28;;;;;;;4.20;0.68;;;17.20;99.90;;;;;;4991919;28;20399;-45
2022/05/26 06:31:39;;;;;;;3.67;0.60;;;17.30;99.90;;;;;;4991565;28;20054;-46
2022/05/26 06:39:34;;;;;;;6.65;0.88;;;19.90;99.90;;;;;;4990778;28;20482;-47
2022/05/26 06:42:06;;;;;;;7.32;1.23;;;20.40;99.90;;;;;;4991391;28;20061;-46
2022/05/26 06:44:42;;;;;;;4.45;0.40;;;21.90;99.90;;;;;;4991189;28;20053;-46
2022/05/26 06:47:17;;;;;;;5.40;0.88;;;23.00;99.90;;;;;;4991580;28;20038;-45
2022/05/26 06:49:43;;;;;;;9.05;2.08;;;23.90;99.90;;;;;;4991214;28;20046;-47
2022/05/26 06:52:10;;;;;;;6.47;0.77;;;24.70;99.90;;;;;;4990125;28;20050;-45
2022/05/26 06:54:43;;;;;;;4.90;0.30;;;25.80;99.90;;;;;;4990843;28;20062;-45
2022/05/26 06:57:10;;;;;;;3.30;0.38;;;26.50;99.30;;;;;;4991425;28;20046;-47
2022/05/26 06:59:37;;;;;;;5.05;0.32;;;25.60;95.50;;;;;;4990937;28;20046;-45
2022/05/26 07:02:08;;;;;;;6.20;0.77;;;24.50;96.30;;;;;;4990959;28;20045;-47
2022/05/26 07:04:34;;;;;;;5.97;1.43;;;24.10;93.50;;;;;;4990875;28;20042;-46
2022/05/26 07:07:01;;;;;;;5.57;0.47;;;25.40;92.70;;;;;;4990843;28;20661;-47
2022/05/26 07:09:27;;;;;;;4.95;0.38;;;26.40;90.10;;;;;;4991082;28;20560;-45
2022/05/26 07:11:54;;;;;;;4.35;0.50;;;27.30;84.90;;;;;;4991189;28;20054;-45
2022/05/26 07:14:20;;;;;;;4.30;0.20;;;27.20;84.70;;;;;;4991129;28;20042;-45
2022/05/26 07:16:46;;;;;;;3.22;0.30;;;26.60;80.50;;;;;;4990793;28;20042;-45
2022/05/26 07:19:14;;;;;;;7.32;0.40;;;25.50;81.40;;;;;;4990041;28;20045;-45
2022/05/26 07:21:43;;;;;;;2.92;0.60;;;24.50;84.40;;;;;;4989010;28;20105;-46
2022/05/26 07:24:09;;;;;;;3.88;0.22;;;24.00;83.50;;;;;;4990929;28;20054;-45
2022/05/26 07:26:35;;;;;;;3.53;0.17;;;23.20;84.80;;;;;;4990570;28;20046;-45
2022/05/26 07:29:01;;;;;;;6.32;0.60;;;22.70;85.00;;;;;;4990535;28;20046;-45
2022/05/26 07:31:27;;;;;;;3.60;0.40;;;21.80;89.00;;;;;;4990434;28;20089;-46
2022/05/26 07:33:52;;;;;;;6.03;0.40;;;21.80;90.00;;;;;;4990637;28;20046;-45
2022/05/26 07:41:53;;;;;;;4.78;0.95;;;20.80;91.00;;;;;;4990559;28;20061;-46
2022/05/26 07:44:18;;;;;;;3.87;0.20;;;20.70;91.20;;;;;;4990045;28;20057;-46
2022/05/26 07:46:44;;;;;;;3.58;0.22;;;20.50;91.50;;;;;;4989918;28;20042;-45
2022/05/26 07:49:12;;;;;;;5.15;0.47;;;20.50;92.30;;;;;;4990236;28;20437;-47
2022/05/26 07:51:37;;;;;;;4.18;0.30;;;20.80;92.10;;;;;;4989928;28;20069;-45
2022/05/26 07:54:03;;;;;;;6.50;0.50;;;20.90;91.90;;;;;;4988526;28;20054;-45
2022/05/26 07:56:36;;;;;;;4.38;0.45;;;21.40;91.50;;;;;;4989935;28;20101;-45
2022/05/26 07:59:04;;;;;;;4.45;0.63;;;21.70;90.70;;;;;;4990215;28;20034;-46
2022/05/26 08:01:30;;;;;;;5.05;0.30;;;22.00;90.10;;;;;;4989058;28;20050;-45
2022/05/26 08:03:56;;;;;;;4.72;0.35;;;22.50;88.70;;;;;;4989474;28;20082;-46
2022/05/26 08:06:21;;;;;;;6.43;0.30;;;22.10;86.80;;;;;;4989400;28;20077;-45
2022/05/26 08:08:47;;;;;;;6.20;0.95;;;22.30;85.00;;;;;;4989489;28;20512;-46
2022/05/26 08:11:13;;;;;;;6.05;0.35;;;21.70;85.80;;;;;;4988583;28;20410;-46
2022/05/26 08:13:39;;;;;;;6.00;0.30;;;21.50;88.90;;;;;;4989032;28;20042;-45
2022/05/26 08:16:05;;;;;;;5.40;0.40;;;21.50;89.70;;;;;;4989460;28;20042;-47
2022/05/26 08:18:32;;;;;;;3.35;0.30;;;22.30;87.10;;;;;;4989543;28;20038;-46
2022/05/26 08:21:11;;;;;;;4.85;0.20;;;23.00;85.60;;;;;;4989520;28;20046;-46
2022/05/26 08:23:37;;;;;;;4.32;0.30;;;23.10;82.20;;;;;;4988300;28;20510;-46
2022/05/26 08:26:03;;;;;;;3.03;0.30;;;23.40;83.20;;;;;;4989925;28;20141;-45
2022/05/26 08:28:29;;;;;;;4.13;0.20;;;23.80;81.20;;;;;;4987963;28;20135;-46
2022/05/26 08:30:55;;;;;;;4.43;0.35;;;23.90;80.20;;;;;;4988976;28;20078;-43
2022/05/26 08:33:21;;;;;;;3.20;0.35;;;24.10;76.90;;;;;;4989671;28;20045;-44
2022/05/26 08:35:47;;;;;;;3.17;0.20;;;24.50;76.50;;;;;;4992167;28;20038;-45
2022/05/26 08:38:12;;;;;;;2.50;0.20;;;24.20;75.70;;;;;;4991547;28;20121;-44
2022/05/26 08:40:48;;;;;;;2.42;0.20;;;25.00;73.80;;;;;;4990818;28;20125;-44
2022/05/26 08:43:21;;;;;;;3.03;0.20;;;26.80;74.10;;;;;;4990876;28;20141;-45
2022/05/26 08:45:52;;;;;;;3.95;0.60;;;27.70;68.50;;;;;;4991590;28;20049;-45
2022/05/26 08:48:48;;;;;;;4.55;0.30;;;27.80;65.80;;;;;;4991776;28;20384;-45
2022/05/26 08:51:22;;;;;;;3.90;0.40;;;28.30;62.70;;;;;;4992126;28;20125;-45
2022/05/26 08:53:50;;;;;;;3.55;0.40;;;28.70;64.10;;;;;;4990606;28;20061;-45
2022/05/26 08:56:21;;;;;;;1.63;0.25;;;29.40;62.00;;;;;;4989854;28;20089;-45
2022/05/26 08:58:48;;;;;;;2.70;0.20;;;29.80;61.80;;;;;;4989952;28;20129;-45
2022/05/26 09:01:19;;;;;;;2.40;0.30;;;30.30;60.60;;;;;;4990409;28;20052;-45
2022/05/26 09:03:45;;;;;;;4.75;0.30;;;31.30;58.90;;;;;;4989833;28;20085;-45
2022/05/26 09:06:17;;;;;;;2.00;0.20;;;31.60;57.90;;;;;;4989851;28;20639;-45
2022/05/26 09:14:39;;;;;;;3.47;0.30;;;30.80;54.40;;;;;;4990294;28;20050;-45
2022/05/26 09:17:10;;;;;;;3.40;0.25;;;30.40;54.70;;;;;;4990145;28;20089;-45
2022/05/26 09:19:42;;;;;;;5.40;0.43;;;30.00;54.60;;;;;;4989881;28;20046;-45
2022/05/26 09:22:44;;;;;;;2.35;0.20;;;29.90;54.10;;;;;;4989738;28;20068;-45
2022/05/26 09:26:02;;;;;;;5.18;0.30;;;28.80;53.90;;;;;;4988136;28;20061;-46
2022/05/26 09:28:33;;;;;;;3.85;0.20;;;27.00;55.40;;;;;;4980333;28;20098;-45
2022/05/26 09:31:33;;;;;;;3.83;0.40;;;26.00;58.60;;;;;;4989512;28;20038;-45
2022/05/26 09:34:15;;;;;;;3.40;0.25;;;25.40;60.10;;;;;;4987622;28;20097;-45
2022/05/26 09:36:50;;;;;;;6.10;0.57;;;25.00;60.80;;;;;;4989237;28;20042;-46
2022/05/26 09:39:42;;;;;;;2.85;0.55;;;25.20;61.60;;;;;;4989451;28;20042;-45
2022/05/26 09:42:17;;;;;;;4.38;0.43;;;26.30;61.70;;;;;;4989694;28;20112;-45
2022/05/26 09:44:56;;;;;;;3.13;0.20;;;24.80;60.80;;;;;;4988774;28;20502;-45
2022/05/26 09:47:34;;;;;;;6.30;0.30;;;25.20;62.60;;;;;;4993365;28;20042;-45
2022/05/26 09:50:10;;;;;;;1.77;0.40;;;26.70;62.80;;;;;;4992393;28;20514;-45
2022/05/26 09:52:49;;;;;;;3.25;0.50;;;27.90;60.10;;;;;;4992740;28;20052;-45
2022/05/26 09:55:24;;;;;;;3.30;0.28;;;29.00;59.00;;;;;;4992490;28;20062;-45
2022/05/26 09:58:21;;;;;;;3.25;0.20;;;29.90;57.40;;;;;;4992543;28;20046;-46
2022/05/26 10:00:47;;;;;;;4.80;0.20;;;30.90;53.50;;;;;;4991725;28;20513;-46
2022/05/26 10:03:13;;;;;;;2.70;0.30;;;31.10;53.70;;;;;;4991813;28;20399;-46
2022/05/26 10:05:51;;;;;;;2.78;0.35;;;30.20;52.40;;;;;;4991911;28;20053;-45
2022/05/26 10:08:28;;;;;;;6.45;0.57;;;28.80;53.20;;;;;;4992131;28;20062;-46
2022/05/26 10:10:59;;;;;;;5.90;1.35;;;27.40;55.00;;;;;;4990747;28;20073;-45
2022/05/26 10:13:49;;;;;;;9.15;1.25;;;26.00;57.30;;;;;;4991344;28;20046;-45
2022/05/26 10:17:02;;;;;;;4.40;0.60;;;25.20;59.60;;;;;;4991839;28;20038;-45
2022/05/26 10:19:53;;;;;;;3.33;0.40;;;25.70;61.40;;;;;;4981489;28;20457;-45
2022/05/26 10:22:47;;;;;;;3.33;0.50;;;26.00;60.20;;;;;;4991831;28;20038;-46
2022/05/26 10:25:30;;;;;;;10.75;0.55;;;26.70;60.80;;;;;;4991282;28;20513;-46
2022/05/26 10:28:06;;;;;;;2.17;0.22;;;28.10;60.40;;;;;;4991638;28;20046;-45
2022/05/26 10:30:53;;;;;;;4.53;0.77;;;28.50;56.80;;;;;;4991271;28;20073;-45
2022/05/26 10:33:38;;;;;;;6.18;0.63;;;28.50;57.40;;;;;;4991818;28;20359;-45
2022/05/26 10:36:32;;;;;;;4.00;0.60;;;28.00;54.50;;;;;;4991284;28;20042;-45
2022/05/26 10:39:28;;;;;;;1.55;0.20;;;26.40;56.10;;;;;;4991456;28;20073;-45
2022/05/26 10:42:10;;;;;;;3.78;0.30;;;25.00;58.10;;;;;;4990719;28;20521;-46
2022/05/26 10:45:14;;;;;;;5.50;0.40;;;23.40;60.40;;;;;;4991510;28;20069;-46
2022/05/26 10:47:56;;;;;;;3.10;0.30;;;23.20;60.90;;;;;;4991372;28;20054;-45
2022/05/26 10:50:26;;;;;;;;;;;22.40;63.50;;;;;;4991406;28;20130;-45
2022/05/26 10:53:23;;;;;;;4.75;0.50;;;21.70;64.90;;;;;;4990435;28;19929;-45
2022/05/26 10:55:58;;;;;;;4.53;0.30;;;21.60;67.70;;;;;;4990349;28;20093;-44
2022/05/26 10:58:44;;;;;;;5.32;0.60;;;21.30;68.70;;;;;;4990911;28;20511;-45
2022/05/26 11:01:22;;;;;;;5.88;0.85;;;21.10;70.50;;;;;;4991101;28;20046;-45
2022/05/26 11:03:53;;;;;;;3.35;0.43;;;20.90;72.00;;;;;;4991092;28;20133;-45
2022/05/26 11:06:30;;;;;;;4.82;0.10;;;20.70;71.90;;;;;;4991144;28;20050;-44
2022/05/26 11:09:07;;;;;;;4.78;0.35;;;20.40;72.70;;;;;;4990910;28;20556;-44
2022/05/26 11:11:49;;;;;;;5.90;0.35;;;20.10;73.20;;;;;;4991012;28;20042;-45
2022/05/26 11:18:00;;;;;;;14.85;1.20;;;20.40;75.30;;;;;;4990887;28;20124;-45
2022/05/26 11:20:53;;;;;;;5.55;0.60;;;20.50;74.90;;;;;;4990863;28;20495;-45
2022/05/26 11:23:20;;;;;;;3.83;0.52;;;20.10;75.50;;;;;;4987594;28;20053;-45
2022/05/26 11:26:04;;;;;;;2.42;0.30;;;19.60;75.90;;;;;;4990974;28;20072;-44
2022/05/26 11:28:39;;;;;;;4.93;0.50;;;19.30;78.10;;;;;;4990827;28;20050;-45
2022/05/26 11:36:59;;;;;;;4.43;0.70;;;19.00;79.60;;;;;;4990150;28;20053;-44
2022/05/26 11:39:35;;;;;;;4.40;0.60;;;18.70;81.10;;;;;;4990262;28;20042;-45
2022/05/26 11:42:08;;;;;;;5.03;0.63;;;18.50;82.50;;;;;;4990065;28;20046;-45
2022/05/26 11:44:44;;;;;;;4.13;0.85;;;18.30;83.40;;;;;;4989967;28;20486;-45
2022/05/26 11:47:16;;;;;;;5.20;0.88;;;18.10;84.70;;;;;;4990210;28;20049;-44
2022/05/26 11:49:47;;;;;;;10.38;0.68;;;18.20;86.00;;;;;;4989216;28;20050;-45
2022/05/26 11:52:31;;;;;;;3.13;0.50;;;18.40;87.30;;;;;;4990163;28;20058;-44
2022/05/26 11:55:02;;;;;;;6.30;1.45;;;18.60;87.20;;;;;;4989680;28;20387;-44
2022/05/26 11:57:39;;;;;;;10.27;0.55;;;18.50;86.80;;;;;;4990455;28;20111;-45
2022/05/26 12:00:23;;;;;;;8.88;0.90;;;18.30;88.00;;;;;;4989881;28;20042;-45
2022/05/26 12:02:51;;;;;;;5.70;0.68;;;18.10;89.10;;;;;;4990295;28;20475;-45
2022/05/26 12:05:29;;;;;;;3.40;0.30;;;18.00;89.20;;;;;;4989673;28;20242;-45
2022/05/26 12:08:00;;;;;;;3.53;0.30;;;18.00;88.70;;;;;;4990360;28;20049;-45
2022/05/26 12:10:28;;;;;;;5.83;0.57;;;18.20;89.00;;;;;;4990044;28;20046;-45
2022/05/26 12:13:32;;;;;;;2.80;0.60;;;18.30;88.40;;;;;;4990313;28;20112;-45
2022/05/26 12:16:19;;;;;;;4.95;0.40;;;18.10;87.30;;;;;;4989445;28;20879;-45
2022/05/26 12:18:57;;;;;;;3.38;0.90;;;18.00;87.10;;;;;;4990129;28;20038;-45
2022/05/26 12:21:28;;;;;;;6.88;0.45;;;18.10;87.00;;;;;;4989439;28;20042;-44
2022/05/26 12:24:18;;;;;;;2.03;0.30;;;18.30;87.60;;;;;;4989647;28;20054;-46
2022/05/26 12:26:54;;;;;;;3.03;0.50;;;18.40;87.20;;;;;;4989976;28;20069;-45
2022/05/26 12:29:47;;;;;;;3.85;0.40;;;18.50;87.60;;;;;;4990107;28;20074;-44
2022/05/26 12:32:24;;;;;;;4.78;0.55;;;18.70;86.00;;;;;;4989364;28;20046;-46
2022/05/26 12:35:37;;;;;;;6.68;0.82;;;18.70;85.80;;;;;;4989537;28;20038;-45
2022/05/26 12:38:15;;;;;;;3.88;0.30;;;18.80;85.60;;;;;;4983582;28;20105;-45
2022/05/26 12:41:06;;;;;;;3.65;0.30;;;18.60;84.70;;;;;;4989580;28;20042;-45
2022/05/26 12:44:07;;;;;;;2.40;0.15;;;18.60;85.30;;;;;;4988151;28;20050;-45
2022/05/26 12:46:59;;;;;;;8.73;0.57;;;18.90;86.00;;;;;;4985820;28;20442;-44
2022/05/26 12:49:53;;;;;;;2.50;0.38;;;19.20;84.40;;;;;;4989516;28;20047;-46
2022/05/26 12:52:37;;;;;;;5.43;0.60;;;19.30;83.00;;;;;;4989347;28;20051;-45
2022/05/26 12:55:16;;;;;;;3.53;0.30;;;19.10;82.20;;;;;;4989242;28;20047;-44
2022/05/26 12:57:45;;;;;;;5.53;0.50;;;19.00;83.10;;;;;;4989461;28;20057;-45
2022/05/26 13:00:58;;;;;;;6.05;1.00;;;19.00;83.10;;;;;;4989264;28;20043;-45
2022/05/26 13:03:32;;;;;;;2.97;0.70;;;19.10;83.70;;;;;;4967112;28;20039;-45
2022/05/26 13:06:23;;;;;;;4.05;0.65;;;19.20;83.80;;;;;;4987800;28;20049;-45
2022/05/26 13:08:54;;;;;;;3.58;0.45;;;19.10;83.80;;;;;;4989583;28;20129;-44
2022/05/26 13:11:25;;;;;;;2.60;0.33;;;18.90;84.00;;;;;;4988881;28;20494;-46
2022/05/26 13:13:57;;;;;;;7.88;0.95;;;19.00;84.50;;;;;;4989419;28;20278;-45
2022/05/26 13:16:36;;;;;;;4.40;0.50;;;19.20;85.20;;;;;;4988790;28;20054;-45
2022/05/26 13:19:11;;;;;;;2.97;0.22;;;19.50;84.60;;;;;;4992664;28;20529;-46
2022/05/26 13:21:37;;;;;;;4.03;0.47;;;19.80;83.20;;;;;;4992903;28;20100;-45
2022/05/26 13:24:04;;;;;;;5.22;0.93;;;20.00;82.00;;;;;;4992875;28;20046;-44
2022/05/26 13:26:30;;;;;;;3.95;0.47;;;20.10;80.80;;;;;;4992342;28;20517;-46
2022/05/26 13:28:59;;;;;;;3.05;0.30;;;20.20;80.30;;;;;;4992997;28;20034;-45
2022/05/26 13:34:13;;;;;;;5.63;0.57;;;20.10;80.00;;;;;;4992772;28;20409;-44
2022/05/26 13:36:42;;;;;;;5.90;0.88;;;20.00;79.60;;;;;;4992482;28;20101;-44
2022/05/26 13:39:18;;;;;;;9.32;0.65;;;19.80;79.20;;;;;;4992125;28;20038;-45
2022/05/26 13:41:46;;;;;;;3.75;0.90;;;19.50;79.60;;;;;;4992628;28;20125;-44
2022/05/26 13:44:30;;;;;;;5.60;0.40;;;19.50;79.80;;;;;;4992565;28;20034;-44
2022/05/26 13:46:57;;;;;;;4.57;0.30;;;19.50;79.90;;;;;;4992634;28;20042;-45
2022/05/26 13:49:36;;;;;;;6.10;0.77;;;19.40;80.00;;;;;;4992401;28;20058;-45
2022/05/26 13:52:21;;;;;;;3.78;0.35;;;19.30;80.00;;;;;;4992408;28;20053;-44
2022/05/26 13:55:00;;;;;;;3.28;0.40;;;19.40;80.90;;;;;;4992255;28;20313;-45